Time;durP1;ratioP1;P1;durP2;ratioP2;P2;SDS_P1;SDS_P2;PMS_P1;PMS_P2;Temp;Humidity;BMP_temperature;BMP_pressure;BME280_temperature;BME280_humidity;BME280_pressure;Samples;Min_cycle;Max_cycle;Signal;HPM_P1;HPM_P2
2023/03/16 00:02:05;;;;;;;5.93;4.13;;;;;;;;;;4449081;32;317048;-91
2023/03/16 00:04:36;;;;;;;5.93;3.80;;;;;;;;;;4438973;32;317024;-91
2023/03/16 00:07:04;;;;;;;2.33;1.90;;;;;;;;;;4449015;32;316536;-91
2023/03/16 00:09:31;;;;;;;4.27;2.40;;;;;;;;;;4438764;32;316992;-91
2023/03/16 00:12:01;;;;;;;1.73;1.03;;;;;;;;;;4448707;32;316425;-91
2023/03/16 00:14:30;;;;;;;1.50;1.40;;;;;;;;;;4436722;32;348199;-91
2023/03/16 00:16:57;;;;;;;1.70;1.60;;;;;;;;;;4448823;32;316938;-91
2023/03/16 00:19:24;;;;;;;1.90;1.23;;;;;;;;;;4438418;32;317186;-91
2023/03/16 00:21:51;;;;;;;1.10;1.00;;;;;;;;;;4448510;32;317361;-91
2023/03/16 00:24:19;;;;;;;1.17;1.03;;;;;;;;;;4438801;32;317196;-91
2023/03/16 00:26:46;;;;;;;1.30;1.20;;;;;;;;;;4447481;32;316894;-90
2023/03/16 00:29:14;;;;;;;1.30;1.20;;;;;;;;;;4438053;32;317069;-90
2023/03/16 00:31:42;;;;;;;1.27;0.90;;;;;;;;;;4448383;32;317105;-91
2023/03/16 00:34:09;;;;;;;0.90;0.90;;;;;;;;;;4438472;32;316371;-90
2023/03/16 00:36:37;;;;;;;1.50;1.00;;;;;;;;;;4447278;32;317524;-91
2023/03/16 00:39:04;;;;;;;2.57;1.63;;;;;;;;;;4447447;32;316636;-91
2023/03/16 00:41:31;;;;;;;1.87;1.30;;;;;;;;;;4437387;32;317559;-90
2023/03/16 00:43:58;;;;;;;1.73;1.00;;;;;;;;;;4447462;32;316571;-91
2023/03/16 00:48:52;;;;;;;1.10;1.00;;;;;;;;;;4447500;32;317253;-91
2023/03/16 00:51:21;;;;;;;1.20;1.10;;;;;;;;;;4437962;32;316433;-90
2023/03/16 00:53:49;;;;;;;0.90;0.90;;;;;;;;;;4449370;32;316973;-91
2023/03/16 00:56:16;;;;;;;1.23;1.13;;;;;;;;;;4439490;32;316563;-91
2023/03/16 00:58:43;;;;;;;1.10;1.00;;;;;;;;;;4449059;32;316702;-91
2023/03/16 01:01:13;;;;;;;1.10;1.00;;;;;;;;;;4438677;32;317424;-90
2023/03/16 01:03:41;;;;;;;1.00;0.90;;;;;;;;;;4447253;32;316335;-90
2023/03/16 01:06:10;;;;;;;1.20;1.00;;;;;;;;;;4438065;32;316707;-91
2023/03/16 01:08:37;;;;;;;0.80;0.80;;;;;;;;;;4447741;32;316642;-92
2023/03/16 01:11:05;;;;;;;1.33;0.90;;;;;;;;;;4451422;32;316485;-91
2023/03/16 01:13:32;;;;;;;1.10;1.00;;;;;;;;;;4444300;32;317110;-91
2023/03/16 01:15:59;;;;;;;1.00;1.00;;;;;;;;;;4453920;32;316537;-90
2023/03/16 01:18:26;;;;;;;1.10;1.00;;;;;;;;;;4445991;32;316252;-91
2023/03/16 01:20:54;;;;;;;1.00;0.90;;;;;;;;;;4450132;32;316549;-90
2023/03/16 01:23:22;;;;;;;1.13;1.03;;;;;;;;;;4439564;32;317500;-91
2023/03/16 01:25:52;;;;;;;1.10;1.00;;;;;;;;;;4448375;32;316986;-91
2023/03/16 01:28:20;;;;;;;1.57;1.20;;;;;;;;;;4437316;32;347785;-91
2023/03/16 01:30:46;;;;;;;3.43;2.10;;;;;;;;;;4448818;32;316562;-90
2023/03/16 01:33:13;;;;;;;3.60;2.50;;;;;;;;;;4439239;32;342738;-91
2023/03/16 01:35:41;;;;;;;5.00;2.60;;;;;;;;;;4449734;32;317201;-91
2023/03/16 01:38:09;;;;;;;2.70;2.00;;;;;;;;;;4443983;32;317181;-86
2023/03/16 01:40:36;;;;;;;2.63;1.63;;;;;;;;;;4449751;32;317621;-90
2023/03/16 01:43:04;;;;;;;2.63;1.60;;;;;;;;;;4449609;32;316900;-90
2023/03/16 01:46:09;;;;;;;2.67;1.87;;;;;;;;;;4438173;32;356346;-90
2023/03/16 01:48:40;;;;;;;2.13;1.60;;;;;;;;;;4435190;32;417517;-91
2023/03/16 01:51:11;;;;;;;1.70;1.10;;;;;;;;;;4446937;32;317459;-91
2023/03/16 01:53:44;;;;;;;1.23;1.13;;;;;;;;;;4433940;32;416342;-90
2023/03/16 01:56:17;;;;;;;1.10;1.00;;;;;;;;;;4438226;32;317383;-92
2023/03/16 01:58:45;;;;;;;1.47;1.30;;;;;;;;;;4447376;32;316733;-91
2023/03/16 02:01:13;;;;;;;2.07;1.13;;;;;;;;;;4438155;32;317507;-90
2023/03/16 02:03:42;;;;;;;1.73;1.30;;;;;;;;;;4447837;32;317179;-91
2023/03/16 02:06:13;;;;;;;1.10;1.00;;;;;;;;;;4437203;32;317640;-90
2023/03/16 02:08:44;;;;;;;2.50;1.50;;;;;;;;;;4448133;32;316615;-90
2023/03/16 02:11:11;;;;;;;1.93;1.40;;;;;;;;;;4436627;32;316613;-90
2023/03/16 02:13:38;;;;;;;2.67;1.50;;;;;;;;;;4452643;32;316962;-90
2023/03/16 02:16:06;;;;;;;1.37;1.20;;;;;;;;;;4460408;32;316173;-90
2023/03/16 02:18:34;;;;;;;1.40;1.20;;;;;;;;;;4449054;32;417195;-90
2023/03/16 02:21:09;;;;;;;1.30;1.17;;;;;;;;;;4454893;32;316981;-90
2023/03/16 02:23:36;;;;;;;2.33;1.50;;;;;;;;;;4447588;32;416485;-90
2023/03/16 02:26:10;;;;;;;3.30;1.47;;;;;;;;;;4444429;32;317194;-90
2023/03/16 02:28:47;;;;;;;4.07;2.77;;;;;;;;;;4439984;32;412536;-90
2023/03/16 02:31:16;;;;;;;4.10;2.27;;;;;;;;;;4445774;32;350300;-90
2023/03/16 02:33:44;;;;;;;2.53;1.83;;;;;;;;;;4460653;32;315186;-89
2023/03/16 02:36:13;;;;;;;1.57;1.23;;;;;;;;;;4438129;32;316458;-90
2023/03/16 02:38:41;;;;;;;1.87;1.23;;;;;;;;;;4448564;32;317130;-90
2023/03/16 02:41:12;;;;;;;1.60;1.30;;;;;;;;;;4446680;32;317707;-89
2023/03/16 02:43:43;;;;;;;1.57;1.10;;;;;;;;;;4461560;32;317399;-90
2023/03/16 02:46:11;;;;;;;1.57;1.07;;;;;;;;;;4451640;32;316303;-89
2023/03/16 02:48:44;;;;;;;1.10;1.00;;;;;;;;;;4456728;32;316400;-89
2023/03/16 02:51:11;;;;;;;0.80;0.80;;;;;;;;;;4445538;32;316286;-90
2023/03/16 02:53:38;;;;;;;1.33;1.00;;;;;;;;;;4449615;32;317604;-90
2023/03/16 02:56:08;;;;;;;0.87;0.80;;;;;;;;;;4449859;32;317188;-90
2023/03/16 02:58:37;;;;;;;1.73;1.10;;;;;;;;;;4436769;32;414986;-91
2023/03/16 03:01:04;;;;;;;2.10;1.30;;;;;;;;;;4450736;32;316653;-91
2023/03/16 03:03:33;;;;;;;1.20;1.10;;;;;;;;;;4440293;32;325966;-90
2023/03/16 03:06:01;;;;;;;3.67;1.60;;;;;;;;;;4449510;32;336943;-90
2023/03/16 03:08:28;;;;;;;2.33;1.40;;;;;;;;;;4440504;32;317363;-91
2023/03/16 03:10:55;;;;;;;3.80;1.37;;;;;;;;;;4449828;32;317208;-91
2023/03/16 03:13:22;;;;;;;2.93;2.27;;;;;;;;;;4438647;32;337848;-91
2023/03/16 03:15:49;;;;;;;3.30;1.33;;;;;;;;;;4450581;32;316510;-91
2023/03/16 03:18:17;;;;;;;1.03;0.93;;;;;;;;;;4440677;32;317295;-91
2023/03/16 03:20:44;;;;;;;1.20;1.10;;;;;;;;;;4451462;32;316480;-90
2023/03/16 03:23:14;;;;;;;0.80;0.80;;;;;;;;;;4440956;32;317172;-91
2023/03/16 03:25:40;;;;;;;0.80;0.80;;;;;;;;;;4448601;32;316643;-91
2023/03/16 03:28:07;;;;;;;0.93;0.93;;;;;;;;;;4450742;32;317115;-90
2023/03/16 03:30:35;;;;;;;0.80;0.80;;;;;;;;;;4437481;32;415987;-91
2023/03/16 03:33:03;;;;;;;0.77;0.77;;;;;;;;;;4450332;32;316611;-90
2023/03/16 03:35:30;;;;;;;0.90;0.77;;;;;;;;;;4438542;32;329793;-90
2023/03/16 03:37:57;;;;;;;0.80;0.80;;;;;;;;;;4449088;32;317427;-90
2023/03/16 03:40:25;;;;;;;0.80;0.80;;;;;;;;;;4438355;32;316374;-90
2023/03/16 03:42:52;;;;;;;2.23;0.93;;;;;;;;;;4449811;32;315960;-90
2023/03/16 03:45:19;;;;;;;1.40;1.30;;;;;;;;;;4438516;32;315518;-91
2023/03/16 03:47:46;;;;;;;2.87;1.93;;;;;;;;;;4449572;32;316486;-90
2023/03/16 03:50:13;;;;;;;4.00;2.30;;;;;;;;;;4438437;32;316064;-90
2023/03/16 03:52:41;;;;;;;3.47;2.13;;;;;;;;;;4448981;32;316019;-91
2023/03/16 03:55:10;;;;;;;1.10;1.00;;;;;;;;;;4449801;32;316248;-90
2023/03/16 03:57:39;;;;;;;5.07;1.87;;;;;;;;;;4436822;32;415305;-90
2023/03/16 04:00:10;;;;;;;3.57;2.43;;;;;;;;;;4448573;32;315453;-90
2023/03/16 04:02:37;;;;;;;8.47;4.17;;;;;;;;;;4437917;32;413460;-91
2023/03/16 04:05:04;;;;;;;4.20;2.17;;;;;;;;;;4457165;32;315835;-91
2023/03/16 04:07:33;;;;;;;1.83;1.10;;;;;;;;;;4448847;32;315280;-90
2023/03/16 04:10:00;;;;;;;2.83;1.27;;;;;;;;;;4460665;32;315488;-90
2023/03/16 04:12:27;;;;;;;1.17;1.03;;;;;;;;;;4439916;32;326173;-91
2023/03/16 04:14:55;;;;;;;1.53;1.30;;;;;;;;;;4450829;32;316111;-90
2023/03/16 04:17:22;;;;;;;1.90;1.00;;;;;;;;;;4444888;32;321897;-90
2023/03/16 04:19:49;;;;;;;1.50;1.00;;;;;;;;;;4459514;32;314950;-89
2023/03/16 04:22:16;;;;;;;1.70;1.30;;;;;;;;;;4448334;32;315156;-90
2023/03/16 04:24:43;;;;;;;2.73;1.80;;;;;;;;;;4453079;32;316062;-91
2023/03/16 04:27:10;;;;;;;1.93;1.37;;;;;;;;;;4446235;32;340366;-88
2023/03/16 04:29:37;;;;;;;1.40;1.07;;;;;;;;;;4458160;32;315060;-91
2023/03/16 04:32:06;;;;;;;2.07;1.70;;;;;;;;;;4448974;32;316105;-90
2023/03/16 04:34:33;;;;;;;2.10;1.60;;;;;;;;;;4435126;32;417583;-91
2023/03/16 04:37:01;;;;;;;2.10;1.23;;;;;;;;;;4448078;32;316353;-91
2023/03/16 04:39:27;;;;;;;1.60;1.33;;;;;;;;;;4440022;32;316039;-91
2023/03/16 04:41:54;;;;;;;1.20;1.10;;;;;;;;;;4452623;32;315409;-91
2023/03/16 04:44:21;;;;;;;3.20;1.70;;;;;;;;;;4443713;32;316020;-91
2023/03/16 04:46:48;;;;;;;1.20;1.10;;;;;;;;;;4453458;32;316095;-90
2023/03/16 04:49:16;;;;;;;6.17;1.93;;;;;;;;;;4442940;32;315222;-90
2023/03/16 04:51:43;;;;;;;3.47;2.50;;;;;;;;;;4453127;32;315742;-90
2023/03/16 04:54:13;;;;;;;1.50;1.40;;;;;;;;;;4437677;32;316116;-90
2023/03/16 04:56:40;;;;;;;3.43;2.20;;;;;;;;;;4448557;32;315898;-91
2023/03/16 04:59:07;;;;;;;4.33;2.30;;;;;;;;;;4447536;32;316664;-92
2023/03/16 05:01:33;;;;;;;5.87;3.90;;;;;;;;;;4436187;32;415147;-91
2023/03/16 05:04:01;;;;;;;5.63;3.30;;;;;;;;;;4448536;32;316168;-90
2023/03/16 05:06:29;;;;;;;5.80;2.10;;;;;;;;;;4437115;32;336990;-91
2023/03/16 05:08:59;;;;;;;3.20;2.20;;;;;;;;;;4448732;32;316174;-90
2023/03/16 05:11:26;;;;;;;6.13;2.00;;;;;;;;;;4436636;32;343096;-90
2023/03/16 05:13:52;;;;;;;5.87;2.90;;;;;;;;;;4449369;32;316766;-90
2023/03/16 05:16:19;;;;;;;10.50;5.57;;;;;;;;;;4437794;32;316031;-91
2023/03/16 05:18:46;;;;;;;11.83;5.83;;;;;;;;;;4446813;32;317132;-91
2023/03/16 05:21:13;;;;;;;18.60;8.57;;;;;;;;;;4435263;32;319910;-90
2023/03/16 05:23:41;;;;;;;16.37;10.17;;;;;;;;;;4447909;32;316407;-91
2023/03/16 05:26:08;;;;;;;6.77;5.13;;;;;;;;;;4444090;32;317797;-91
2023/03/16 05:28:35;;;;;;;9.73;6.27;;;;;;;;;;4448744;32;315613;-90
2023/03/16 05:31:02;;;;;;;11.17;6.23;;;;;;;;;;4448557;32;316001;-91
2023/03/16 05:33:29;;;;;;;12.27;6.47;;;;;;;;;;4439300;32;317275;-91
2023/03/16 05:35:56;;;;;;;16.13;7.90;;;;;;;;;;4447205;32;317092;-91
2023/03/16 05:38:23;;;;;;;21.40;10.67;;;;;;;;;;4439929;32;316639;-92
2023/03/16 05:40:53;;;;;;;30.43;14.93;;;;;;;;;;4450290;32;317630;-90
2023/03/16 05:43:20;;;;;;;25.83;12.03;;;;;;;;;;4438633;32;351050;-90
2023/03/16 05:45:47;;;;;;;20.30;9.63;;;;;;;;;;4449077;32;318153;-91
2023/03/16 05:48:15;;;;;;;14.53;7.50;;;;;;;;;;4440437;32;317674;-89
2023/03/16 05:50:42;;;;;;;16.80;10.27;;;;;;;;;;4451882;32;317161;-91
2023/03/16 05:53:09;;;;;;;17.30;6.60;;;;;;;;;;4438619;32;346850;-90
2023/03/16 05:55:35;;;;;;;17.43;7.33;;;;;;;;;;4452076;32;317586;-91
2023/03/16 05:58:04;;;;;;;26.53;9.60;;;;;;;;;;4451391;32;317178;-91
2023/03/16 06:00:31;;;;;;;19.23;9.43;;;;;;;;;;4438966;32;317487;-93
2023/03/16 06:02:58;;;;;;;15.33;8.60;;;;;;;;;;4449585;32;316505;-90
2023/03/16 06:05:27;;;;;;;14.53;5.37;;;;;;;;;;4439580;32;316717;-91
2023/03/16 06:07:54;;;;;;;3.87;3.33;;;;;;;;;;4447824;32;353418;-90
2023/03/16 06:10:25;;;;;;;4.00;2.67;;;;;;;;;;4437404;32;340499;-91
2023/03/16 06:12:52;;;;;;;5.20;3.03;;;;;;;;;;4449621;32;315741;-90
2023/03/16 06:15:23;;;;;;;6.23;3.17;;;;;;;;;;4439864;32;322788;-91
2023/03/16 06:17:50;;;;;;;6.47;3.43;;;;;;;;;;4452121;32;315487;-91
2023/03/16 06:20:17;;;;;;;6.30;3.30;;;;;;;;;;4441763;32;316128;-90
2023/03/16 06:22:44;;;;;;;5.40;3.03;;;;;;;;;;4451562;32;315505;-90
2023/03/16 06:25:13;;;;;;;3.33;2.30;;;;;;;;;;4440724;32;315736;-91
2023/03/16 06:27:40;;;;;;;5.17;3.40;;;;;;;;;;4452384;32;315482;-90
2023/03/16 06:30:09;;;;;;;6.03;4.00;;;;;;;;;;4453084;32;316364;-92
2023/03/16 06:32:37;;;;;;;3.33;2.40;;;;;;;;;;4440055;32;413220;-92
2023/03/16 06:35:05;;;;;;;4.17;3.07;;;;;;;;;;4453274;32;315329;-91
2023/03/16 06:37:33;;;;;;;3.97;2.60;;;;;;;;;;4442729;32;316080;-92
2023/03/16 06:39:59;;;;;;;3.10;1.73;;;;;;;;;;4451955;32;315594;-92
2023/03/16 06:42:26;;;;;;;3.97;2.17;;;;;;;;;;4442047;32;315694;-89
2023/03/16 06:44:53;;;;;;;5.80;3.67;;;;;;;;;;4452425;32;316442;-89
2023/03/16 06:47:21;;;;;;;9.67;5.57;;;;;;;;;;4441668;32;315463;-92
2023/03/16 06:49:50;;;;;;;9.30;5.67;;;;;;;;;;4452887;32;315463;-89
2023/03/16 06:52:17;;;;;;;11.67;4.07;;;;;;;;;;4441033;32;316713;-91
2023/03/16 06:54:44;;;;;;;16.87;7.20;;;;;;;;;;4450358;32;328733;-89
2023/03/16 06:57:12;;;;;;;10.50;4.03;;;;;;;;;;4442374;32;316617;-90
2023/03/16 06:59:40;;;;;;;5.60;3.43;;;;;;;;;;4452628;32;317142;-90
2023/03/16 07:02:07;;;;;;;3.47;2.70;;;;;;;;;;4453769;32;315749;-89
2023/03/16 07:04:34;;;;;;;5.37;2.60;;;;;;;;;;4432927;32;418839;-90
2023/03/16 07:07:02;;;;;;;4.43;2.63;;;;;;;;;;4454161;32;316158;-90
2023/03/16 07:09:29;;;;;;;6.07;4.13;;;;;;;;;;4423218;32;348363;-90
2023/03/16 07:11:56;;;;;;;7.30;5.43;;;;;;;;;;4446625;32;342016;-90
2023/03/16 07:14:25;;;;;;;7.03;4.47;;;;;;;;;;4443167;32;323390;-90
2023/03/16 07:16:51;;;;;;;6.17;4.07;;;;;;;;;;4453661;32;315560;-90
2023/03/16 07:19:19;;;;;;;5.87;3.43;;;;;;;;;;4444587;32;316411;-88
2023/03/16 07:21:46;;;;;;;6.33;3.97;;;;;;;;;;4454150;32;315554;-92
2023/03/16 07:24:15;;;;;;;8.87;3.73;;;;;;;;;;4439127;32;337246;-91
2023/03/16 07:26:42;;;;;;;3.73;2.73;;;;;;;;;;4451360;32;315611;-91
2023/03/16 07:29:10;;;;;;;4.77;3.23;;;;;;;;;;4443138;32;316244;-90
2023/03/16 07:31:37;;;;;;;4.20;2.33;;;;;;;;;;4461727;32;315887;-89
2023/03/16 07:34:04;;;;;;;5.23;2.70;;;;;;;;;;4459143;32;315252;-90
2023/03/16 07:36:31;;;;;;;12.77;7.10;;;;;;;;;;4447794;32;316134;-92
2023/03/16 07:38:58;;;;;;;8.20;4.70;;;;;;;;;;4463717;32;315196;-90
2023/03/16 07:41:26;;;;;;;4.70;3.07;;;;;;;;;;4453134;32;315236;-91
2023/03/16 07:43:53;;;;;;;7.33;3.87;;;;;;;;;;4456196;32;314445;-90
2023/03/16 07:46:20;;;;;;;5.03;2.87;;;;;;;;;;4442688;32;315528;-89
2023/03/16 07:48:51;;;;;;;5.87;2.57;;;;;;;;;;4454212;32;315505;-91
2023/03/16 07:51:18;;;;;;;2.67;2.10;;;;;;;;;;4441987;32;315487;-90
2023/03/16 07:53:47;;;;;;;8.73;4.80;;;;;;;;;;4450764;32;347673;-91
2023/03/16 07:56:14;;;;;;;2.70;1.90;;;;;;;;;;4439803;32;315474;-91
2023/03/16 07:58:45;;;;;;;3.03;2.40;;;;;;;;;;4450066;32;315312;-90
2023/03/16 08:01:11;;;;;;;3.90;3.13;;;;;;;;;;4442005;32;315961;-90
2023/03/16 08:03:39;;;;;;;3.30;2.40;;;;;;;;;;4450652;32;315627;-90
2023/03/16 08:06:06;;;;;;;1.60;1.50;;;;;;;;;;4451450;32;316224;-90
2023/03/16 08:08:34;;;;;;;1.67;1.57;;;;;;;;;;4424282;32;416085;-90
2023/03/16 08:11:01;;;;;;;2.00;1.80;;;;;;;;;;4436312;32;315562;-91
2023/03/16 08:13:29;;;;;;;5.70;2.40;;;;;;;;;;4426597;32;315598;-90
2023/03/16 08:16:00;;;;;;;6.77;4.20;;;;;;;;;;4438128;32;315542;-90
2023/03/16 08:18:29;;;;;;;30.87;14.83;;;;;;;;;;4427350;32;315218;-88
2023/03/16 08:20:56;;;;;;;9.93;6.27;;;;;;;;;;4441039;32;317617;-90
2023/03/16 08:23:24;;;;;;;14.70;6.07;;;;;;;;;;4429796;32;315561;-91
2023/03/16 08:25:53;;;;;;;3.03;2.17;;;;;;;;;;4441090;32;316487;-91
2023/03/16 08:28:20;;;;;;;3.57;2.33;;;;;;;;;;4430765;32;348592;-92
2023/03/16 08:30:49;;;;;;;3.27;2.30;;;;;;;;;;4442536;32;314430;-91
2023/03/16 08:33:19;;;;;;;7.73;2.80;;;;;;;;;;4433495;32;315334;-92
2023/03/16 08:35:47;;;;;;;3.20;2.50;;;;;;;;;;4443083;32;320702;-92
2023/03/16 08:38:16;;;;;;;2.37;1.70;;;;;;;;;;4432544;32;314984;-89
2023/03/16 08:40:47;;;;;;;3.13;2.37;;;;;;;;;;4446722;32;315213;-92
2023/03/16 08:43:14;;;;;;;2.63;1.73;;;;;;;;;;4437870;32;315371;-90
2023/03/16 08:45:43;;;;;;;5.13;2.50;;;;;;;;;;4443739;32;315479;-90
2023/03/16 08:48:11;;;;;;;2.23;1.60;;;;;;;;;;4423552;32;315431;-92
2023/03/16 08:50:42;;;;;;;4.17;2.90;;;;;;;;;;4434594;32;315633;-89
2023/03/16 08:53:11;;;;;;;4.10;2.80;;;;;;;;;;4424478;32;315924;-93
2023/03/16 08:55:40;;;;;;;9.00;4.63;;;;;;;;;;4435727;32;315324;-90
2023/03/16 08:58:07;;;;;;;5.63;3.77;;;;;;;;;;4437400;32;315771;-91
2023/03/16 09:00:35;;;;;;;3.63;2.70;;;;;;;;;;4423604;32;414747;-92
2023/03/16 09:03:02;;;;;;;4.00;3.13;;;;;;;;;;4440036;32;316663;-91
2023/03/16 09:05:30;;;;;;;5.10;3.77;;;;;;;;;;4424248;32;317213;-89
2023/03/16 09:07:58;;;;;;;3.30;2.30;;;;;;;;;;4434101;32;317459;-89
2023/03/16 09:10:26;;;;;;;2.77;1.50;;;;;;;;;;4424379;32;316408;-91
2023/03/16 09:12:54;;;;;;;1.60;1.30;;;;;;;;;;4434154;32;326202;-90
2023/03/16 09:15:22;;;;;;;1.07;1.00;;;;;;;;;;4426894;32;316755;-90
2023/03/16 09:17:49;;;;;;;3.70;1.00;;;;;;;;;;4438462;32;315606;-90
2023/03/16 09:20:18;;;;;;;2.60;1.10;;;;;;;;;;4428079;32;315259;-92
2023/03/16 09:22:45;;;;;;;2.80;1.50;;;;;;;;;;4436955;32;315537;-92
2023/03/16 09:25:14;;;;;;;2.97;1.50;;;;;;;;;;4428126;32;315359;-90
2023/03/16 09:27:41;;;;;;;4.17;1.40;;;;;;;;;;4438509;32;315972;-90
2023/03/16 09:30:10;;;;;;;1.47;1.37;;;;;;;;;;4434458;32;315581;-90
2023/03/16 09:32:37;;;;;;;2.10;1.90;;;;;;;;;;4421740;32;413252;-91
2023/03/16 09:35:05;;;;;;;2.67;1.60;;;;;;;;;;4433800;32;324501;-92
2023/03/16 09:37:33;;;;;;;2.87;1.80;;;;;;;;;;4424007;32;315567;-91
2023/03/16 09:40:00;;;;;;;1.93;1.73;;;;;;;;;;4437738;32;315270;-90
2023/03/16 09:42:36;;;;;;;3.73;2.60;;;;;;;;;;4425684;32;316097;-93
2023/03/16 09:45:19;;;;;;;5.63;3.80;;;;;;;;;;4435790;32;316394;-91
2023/03/16 09:47:49;;;;;;;5.83;3.30;;;;;;;;;;4421792;32;419680;-90
2023/03/16 09:50:22;;;;;;;2.63;1.80;;;;;;;;;;4425411;32;317078;-90
2023/03/16 09:52:57;;;;;;;3.20;2.43;;;;;;;;;;4436040;32;317003;-90
2023/03/16 09:55:30;;;;;;;4.57;3.53;;;;;;;;;;4425557;32;316676;-92
2023/03/16 09:57:59;;;;;;;1.73;1.53;;;;;;;;;;4434101;32;317330;-89
2023/03/16 10:00:30;;;;;;;4.07;2.23;;;;;;;;;;4423233;32;317195;-91
2023/03/16 10:03:14;;;;;;;10.20;3.97;;;;;;;;;;4435933;32;317265;-92
2023/03/16 10:05:42;;;;;;;4.10;2.40;;;;;;;;;;4432363;32;419575;-90
2023/03/16 10:08:21;;;;;;;1.50;1.40;;;;;;;;;;4438298;32;316184;-92
2023/03/16 10:11:02;;;;;;;2.10;1.60;;;;;;;;;;4450473;32;316460;-90
2023/03/16 10:13:37;;;;;;;1.40;1.20;;;;;;;;;;4439743;32;315407;-91
2023/03/16 10:16:09;;;;;;;1.60;1.50;;;;;;;;;;4450106;32;315004;-89
2023/03/16 10:18:43;;;;;;;1.20;1.10;;;;;;;;;;4436104;32;417721;-90
2023/03/16 10:21:17;;;;;;;1.80;1.47;;;;;;;;;;4437817;32;335625;-90
2023/03/16 10:23:45;;;;;;;7.73;2.80;;;;;;;;;;4451221;32;315700;-90
2023/03/16 10:26:17;;;;;;;2.93;2.13;;;;;;;;;;4441685;32;315273;-90
2023/03/16 10:28:46;;;;;;;2.70;2.37;;;;;;;;;;4452529;32;316452;-92
2023/03/16 10:31:16;;;;;;;1.30;1.13;;;;;;;;;;4442224;32;316391;-89
2023/03/16 10:33:43;;;;;;;2.03;1.83;;;;;;;;;;4451284;32;317552;-89
2023/03/16 10:36:16;;;;;;;3.27;2.43;;;;;;;;;;4439178;32;350227;-89
2023/03/16 10:38:47;;;;;;;2.63;1.80;;;;;;;;;;4450901;32;316796;-93
2023/03/16 10:41:24;;;;;;;4.47;1.77;;;;;;;;;;4439818;32;317026;-89
2023/03/16 10:43:54;;;;;;;2.77;2.00;;;;;;;;;;4450214;32;317547;-90
2023/03/16 10:46:22;;;;;;;1.90;1.50;;;;;;;;;;4440502;32;316491;-91
2023/03/16 10:48:58;;;;;;;4.07;2.30;;;;;;;;;;4449088;32;316794;-90
2023/03/16 10:51:28;;;;;;;2.10;1.80;;;;;;;;;;4437962;32;317285;-90
2023/03/16 10:54:01;;;;;;;5.20;2.30;;;;;;;;;;4448322;32;316652;-90
2023/03/16 10:56:34;;;;;;;2.50;2.30;;;;;;;;;;4436917;32;317238;-91
2023/03/16 10:59:14;;;;;;;4.73;3.17;;;;;;;;;;4448814;32;317133;-93
2023/03/16 11:01:47;;;;;;;3.90;2.60;;;;;;;;;;4432317;32;418851;-90
2023/03/16 11:04:16;;;;;;;3.83;3.07;;;;;;;;;;4442653;32;330017;-91
2023/03/16 11:06:53;;;;;;;10.00;5.53;;;;;;;;;;4452968;32;353483;-90
2023/03/16 11:09:23;;;;;;;3.03;2.13;;;;;;;;;;4443565;32;317407;-90
2023/03/16 11:11:51;;;;;;;4.63;3.17;;;;;;;;;;4453581;32;355700;-91
2023/03/16 11:14:23;;;;;;;10.77;6.80;;;;;;;;;;4441317;32;316379;-91
2023/03/16 11:16:58;;;;;;;9.03;5.50;;;;;;;;;;4453245;32;317492;-89
2023/03/16 11:19:28;;;;;;;6.73;2.93;;;;;;;;;;4442184;32;317314;-91
2023/03/16 11:21:59;;;;;;;6.17;4.23;;;;;;;;;;4454032;32;316510;-90
2023/03/16 11:24:33;;;;;;;20.60;11.50;;;;;;;;;;4441385;32;316515;-92
2023/03/16 11:27:04;;;;;;;7.13;4.10;;;;;;;;;;4452657;32;319314;-91
2023/03/16 11:29:47;;;;;;;6.57;2.77;;;;;;;;;;4440822;32;324284;-90
2023/03/16 11:32:19;;;;;;;11.87;5.17;;;;;;;;;;4442386;32;316414;-89
2023/03/16 11:34:47;;;;;;;6.63;4.70;;;;;;;;;;4451152;32;317550;-91
2023/03/16 11:37:24;;;;;;;2.10;1.60;;;;;;;;;;4442687;32;316416;-91
2023/03/16 11:40:01;;;;;;;3.13;2.43;;;;;;;;;;4452234;32;316432;-91
2023/03/16 11:42:30;;;;;;;8.30;3.27;;;;;;;;;;4440571;32;316307;-92
2023/03/16 11:45:08;;;;;;;3.53;2.77;;;;;;;;;;4450340;32;316611;-91
2023/03/16 11:48:14;;;;;;;4.83;2.70;;;;;;;;;;4436115;32;416418;-93
2023/03/16 11:50:53;;;;;;;2.83;2.10;;;;;;;;;;4420044;32;419395;-89
2023/03/16 11:53:36;;;;;;;2.40;1.90;;;;;;;;;;4438590;32;358267;-90
2023/03/16 11:56:14;;;;;;;3.70;2.63;;;;;;;;;;4451713;32;317207;-91
2023/03/16 11:58:57;;;;;;;3.53;3.00;;;;;;;;;;4443703;32;417392;-89
2023/03/16 12:01:35;;;;;;;2.57;2.07;;;;;;;;;;4441493;32;317447;-91
2023/03/16 12:04:22;;;;;;;2.47;2.20;;;;;;;;;;4458333;32;316328;-90
2023/03/16 12:07:14;;;;;;;5.20;1.77;;;;;;;;;;4447445;32;415911;-90
2023/03/16 12:10:00;;;;;;;14.47;7.80;;;;;;;;;;4450643;32;421022;-90
2023/03/16 12:12:37;;;;;;;10.83;5.73;;;;;;;;;;4451438;32;318117;-92
2023/03/16 12:15:17;;;;;;;9.50;5.57;;;;;;;;;;4463015;32;316095;-91
2023/03/16 12:17:46;;;;;;;14.47;10.37;;;;;;;;;;4448649;32;412441;-89
2023/03/16 12:20:18;;;;;;;11.43;8.23;;;;;;;;;;4451394;32;319208;-90
2023/03/16 12:22:49;;;;;;;11.03;7.17;;;;;;;;;;4461963;32;317478;-91
2023/03/16 12:25:20;;;;;;;6.67;3.67;;;;;;;;;;4453073;32;317480;-91
2023/03/16 12:27:51;;;;;;;11.07;4.07;;;;;;;;;;4461298;32;314984;-90
2023/03/16 12:30:35;;;;;;;6.73;1.97;;;;;;;;;;4453589;32;317067;-91
2023/03/16 12:33:08;;;;;;;15.37;3.23;;;;;;;;;;4461444;32;316173;-91
2023/03/16 12:35:45;;;;;;;4.60;3.20;;;;;;;;;;4450388;32;418120;-89
2023/03/16 12:38:36;;;;;;;3.03;2.57;;;;;;;;;;4452834;32;317198;-90
2023/03/16 12:41:15;;;;;;;6.83;2.70;;;;;;;;;;4450393;32;317277;-91
2023/03/16 12:44:05;;;;;;;5.67;2.87;;;;;;;;;;4436277;32;415699;-90
2023/03/16 12:46:42;;;;;;;5.60;2.10;;;;;;;;;;4439340;32;316460;-91
2023/03/16 12:49:11;;;;;;;4.07;2.50;;;;;;;;;;4441401;32;317386;-91
2023/03/16 12:51:40;;;;;;;3.70;2.73;;;;;;;;;;4432655;32;316338;-91
2023/03/16 12:54:19;;;;;;;4.30;3.03;;;;;;;;;;4448459;32;316235;-90
2023/03/16 12:56:48;;;;;;;5.13;2.70;;;;;;;;;;4437539;32;416041;-90
2023/03/16 12:59:18;;;;;;;2.90;2.57;;;;;;;;;;4439502;32;316549;-90
2023/03/16 13:01:50;;;;;;;5.30;3.60;;;;;;;;;;4451437;32;316551;-90
2023/03/16 13:04:20;;;;;;;5.90;4.07;;;;;;;;;;4441210;32;317354;-89
2023/03/16 13:06:50;;;;;;;9.10;5.33;;;;;;;;;;4450302;32;316234;-89
2023/03/16 13:09:21;;;;;;;5.77;3.77;;;;;;;;;;4439746;32;316557;-91
2023/03/16 13:11:50;;;;;;;6.77;4.20;;;;;;;;;;4450554;32;315441;-91
2023/03/16 13:14:39;;;;;;;9.10;6.33;;;;;;;;;;4438752;32;315573;-91
2023/03/16 13:17:22;;;;;;;5.03;3.50;;;;;;;;;;4449147;32;316132;-90
2023/03/16 13:20:02;;;;;;;5.10;3.87;;;;;;;;;;4437656;32;416887;-91
2023/03/16 13:22:31;;;;;;;10.63;6.30;;;;;;;;;;4438809;32;316052;-89
2023/03/16 13:25:13;;;;;;;18.07;8.43;;;;;;;;;;4448753;32;316515;-90
2023/03/16 13:27:40;;;;;;;8.00;5.77;;;;;;;;;;4435249;32;414461;-89
2023/03/16 13:30:19;;;;;;;56.20;32.53;;;;;;;;;;4449562;32;316483;-90
2023/03/16 13:32:46;;;;;;;15.83;9.90;;;;;;;;;;4435129;32;419202;-90
2023/03/16 13:35:18;;;;;;;7.00;6.13;;;;;;;;;;4439433;32;316894;-89
2023/03/16 13:37:47;;;;;;;5.63;5.03;;;;;;;;;;4448096;32;317104;-92
2023/03/16 13:40:19;;;;;;;3.83;3.13;;;;;;;;;;4436408;32;317137;-92
2023/03/16 13:42:48;;;;;;;5.23;3.73;;;;;;;;;;4451679;32;316351;-89
2023/03/16 13:45:19;;;;;;;7.20;5.30;;;;;;;;;;4444008;32;317363;-89
2023/03/16 13:47:48;;;;;;;10.07;5.40;;;;;;;;;;4449860;32;316829;-90
2023/03/16 13:50:18;;;;;;;8.93;5.27;;;;;;;;;;4440199;32;317235;-89
2023/03/16 13:52:55;;;;;;;7.47;5.70;;;;;;;;;;4448781;32;315348;-91
2023/03/16 13:55:29;;;;;;;8.50;4.50;;;;;;;;;;4439616;32;315480;-91
2023/03/16 13:57:56;;;;;;;10.43;6.67;;;;;;;;;;4449545;32;315243;-90
2023/03/16 14:00:26;;;;;;;5.20;3.83;;;;;;;;;;4439483;32;317067;-91
2023/03/16 14:02:55;;;;;;;9.70;5.63;;;;;;;;;;4448325;32;315563;-89
2023/03/16 14:05:26;;;;;;;6.33;3.67;;;;;;;;;;4436847;32;335773;-90
2023/03/16 14:07:55;;;;;;;5.23;3.87;;;;;;;;;;4448096;32;316253;-90
2023/03/16 14:10:24;;;;;;;2.60;2.40;;;;;;;;;;4439548;32;316007;-91
2023/03/16 14:12:52;;;;;;;3.53;2.77;;;;;;;;;;4448981;32;316142;-89
2023/03/16 14:15:19;;;;;;;9.23;4.70;;;;;;;;;;4437787;32;315115;-90
2023/03/16 14:17:46;;;;;;;4.23;3.83;;;;;;;;;;4447609;32;315575;-89
2023/03/16 14:20:19;;;;;;;3.90;3.37;;;;;;;;;;4437468;32;315382;-90
2023/03/16 14:22:51;;;;;;;6.30;3.53;;;;;;;;;;4448431;32;315283;-90
2023/03/16 14:25:22;;;;;;;7.33;4.70;;;;;;;;;;4437737;32;315593;-91
2023/03/16 14:27:58;;;;;;;15.63;9.83;;;;;;;;;;4449147;32;315400;-92
2023/03/16 14:30:27;;;;;;;34.43;19.43;;;;;;;;;;4436515;32;355294;-92
2023/03/16 14:32:57;;;;;;;22.27;10.17;;;;;;;;;;4446727;32;354842;-89
2023/03/16 14:35:27;;;;;;;18.10;9.80;;;;;;;;;;4438137;32;318324;-89
2023/03/16 14:37:56;;;;;;;19.87;9.20;;;;;;;;;;4451923;32;346627;-89
2023/03/16 14:40:27;;;;;;;14.17;7.47;;;;;;;;;;4442329;32;317277;-91
2023/03/16 14:42:56;;;;;;;7.30;5.30;;;;;;;;;;4450928;32;316296;-90
2023/03/16 14:45:27;;;;;;;4.03;3.33;;;;;;;;;;4441957;32;316232;-90
2023/03/16 14:47:54;;;;;;;3.67;2.87;;;;;;;;;;4452719;32;315273;-90